sensor_id;sensor_type;location;lat;lon;timestamp;pressure;altitude;pressure_sealevel;temperature;humidity
63493;BME280;49638;47.526;10.028;2022-11-20T00:02:23;91156.56;;;3.52;96.65
63493;BME280;49638;47.526;10.028;2022-11-20T00:05:23;91141.13;;;3.50;96.55
63493;BME280;49638;47.526;10.028;2022-11-20T00:08:24;91141.69;;;3.52;96.97
63493;BME280;49638;47.526;10.028;2022-11-20T00:11:26;91144.09;;;3.54;96.65
63493;BME280;49638;47.526;10.028;2022-11-20T00:14:27;91152.16;;;3.52;97.02
63493;BME280;49638;47.526;10.028;2022-11-20T00:17:27;91151.34;;;3.52;96.86
63493;BME280;49638;47.526;10.028;2022-11-20T00:20:27;91151.16;;;3.53;96.91
63493;BME280;49638;47.526;10.028;2022-11-20T00:23:28;91145.16;;;3.46;97.52
63493;BME280;49638;47.526;10.028;2022-11-20T00:26:28;91146.97;;;3.46;97.23
63493;BME280;49638;47.526;10.028;2022-11-20T00:29:29;91156.19;;;3.48;97.15
63493;BME280;49638;47.526;10.028;2022-11-20T00:32:29;91150.47;;;3.40;97.34
63493;BME280;49638;47.526;10.028;2022-11-20T00:35:29;91159.25;;;3.45;97.06
63493;BME280;49638;47.526;10.028;2022-11-20T00:38:31;91166.47;;;3.50;96.97
63493;BME280;49638;47.526;10.028;2022-11-20T00:41:31;91167.25;;;3.50;97.10
63493;BME280;49638;47.526;10.028;2022-11-20T00:44:31;91163.44;;;3.46;97.47
63493;BME280;49638;47.526;10.028;2022-11-20T00:47:32;91161.44;;;3.48;97.02
63493;BME280;49638;47.526;10.028;2022-11-20T00:50:32;91160.03;;;3.46;96.84
63493;BME280;49638;47.526;10.028;2022-11-20T00:53:33;91173.28;;;3.51;96.60
63493;BME280;49638;47.526;10.028;2022-11-20T00:56:33;91160.09;;;3.39;96.65
63493;BME280;49638;47.526;10.028;2022-11-20T00:59:33;91169.91;;;3.44;97.18
63493;BME280;49638;47.526;10.028;2022-11-20T01:02:33;91168.56;;;3.35;96.86
63493;BME280;49638;47.526;10.028;2022-11-20T01:05:35;91185.00;;;3.42;96.88
63493;BME280;49638;47.526;10.028;2022-11-20T01:08:36;91185.38;;;3.45;96.91
63493;BME280;49638;47.526;10.028;2022-11-20T01:11:39;91180.94;;;3.46;96.96
63493;BME280;49638;47.526;10.028;2022-11-20T01:14:40;91187.78;;;3.47;97.01
63493;BME280;49638;47.526;10.028;2022-11-20T01:17:40;91179.75;;;3.42;96.98
63493;BME280;49638;47.526;10.028;2022-11-20T01:20:40;91188.78;;;3.46;97.24
63493;BME280;49638;47.526;10.028;2022-11-20T01:23:42;91189.97;;;3.50;96.83
63493;BME280;49638;47.526;10.028;2022-11-20T01:26:43;91183.34;;;3.47;96.78
63493;BME280;49638;47.526;10.028;2022-11-20T01:29:44;91185.75;;;3.49;96.64
63493;BME280;49638;47.526;10.028;2022-11-20T01:32:44;91199.16;;;3.52;96.70
63493;BME280;49638;47.526;10.028;2022-11-20T01:35:44;91181.53;;;3.48;96.89
63493;BME280;49638;47.526;10.028;2022-11-20T01:38:45;91192.31;;;3.58;96.68
63493;BME280;49638;47.526;10.028;2022-11-20T01:41:47;91183.91;;;3.49;96.44
63493;BME280;49638;47.526;10.028;2022-11-20T01:49:03;91199.72;;;3.61;96.33
63493;BME280;49638;47.526;10.028;2022-11-20T01:52:07;91192.06;;;3.60;96.30
63493;BME280;49638;47.526;10.028;2022-11-20T01:55:15;91205.50;;;3.63;96.55
63493;BME280;49638;47.526;10.028;2022-11-20T01:58:19;91203.91;;;3.62;96.44
63493;BME280;49638;47.526;10.028;2022-11-20T02:01:22;91202.53;;;3.60;96.51
63493;BME280;49638;47.526;10.028;2022-11-20T02:04:23;91189.97;;;3.50;96.46
63493;BME280;49638;47.526;10.028;2022-11-20T02:07:24;91203.59;;;3.52;96.58
63493;BME280;49638;47.526;10.028;2022-11-20T02:10:25;91197.41;;;3.46;96.09
63493;BME280;49638;47.526;10.028;2022-11-20T02:13:26;91198.97;;;3.54;96.23
63493;BME280;49638;47.526;10.028;2022-11-20T02:16:46;91195.56;;;3.53;96.14
63493;BME280;49638;47.526;10.028;2022-11-20T02:19:47;91189.97;;;3.50;96.01
63493;BME280;49638;47.526;10.028;2022-11-20T02:22:55;91193.81;;;3.47;95.90
63493;BME280;49638;47.526;10.028;2022-11-20T02:25:58;91199.41;;;3.51;96.00
63493;BME280;49638;47.526;10.028;2022-11-20T02:29:02;91210.63;;;3.51;95.65
63493;BME280;49638;47.526;10.028;2022-11-20T02:32:03;91206.06;;;3.47;95.95
63493;BME280;49638;47.526;10.028;2022-11-20T02:38:26;91202.44;;;3.48;95.42
63493;BME280;49638;47.526;10.028;2022-11-20T02:41:35;91191.06;;;3.36;96.04
63493;BME280;49638;47.526;10.028;2022-11-20T02:44:35;91192.25;;;3.40;95.65
63493;BME280;49638;47.526;10.028;2022-11-20T02:47:36;91190.44;;;3.40;95.62
63493;BME280;49638;47.526;10.028;2022-11-20T02:50:38;91206.31;;;3.39;95.78
63493;BME280;49638;47.526;10.028;2022-11-20T02:53:39;91200.28;;;3.38;95.92
63493;BME280;49638;47.526;10.028;2022-11-20T02:56:39;91197.91;;;3.37;95.96
63493;BME280;49638;47.526;10.028;2022-11-20T02:59:39;91202.09;;;3.38;95.98
63493;BME280;49638;47.526;10.028;2022-11-20T03:02:40;91203.97;;;3.30;95.41
63493;BME280;49638;47.526;10.028;2022-11-20T03:05:40;91186.75;;;3.23;95.58
63493;BME280;49638;47.526;10.028;2022-11-20T03:08:40;91197.56;;;3.26;95.76
63493;BME280;49638;47.526;10.028;2022-11-20T03:11:40;91201.34;;;3.30;95.74
63493;BME280;49638;47.526;10.028;2022-11-20T03:14:41;91204.16;;;3.29;95.75
63493;BME280;49638;47.526;10.028;2022-11-20T03:17:41;91195.59;;;3.22;95.89
63493;BME280;49638;47.526;10.028;2022-11-20T03:20:41;91180.94;;;3.21;95.78
63493;BME280;49638;47.526;10.028;2022-11-20T03:23:42;91176.50;;;3.21;95.14
63493;BME280;49638;47.526;10.028;2022-11-20T03:26:42;91174.91;;;3.20;95.49
63493;BME280;49638;47.526;10.028;2022-11-20T03:29:42;91185.56;;;3.19;95.13
63493;BME280;49638;47.526;10.028;2022-11-20T03:32:43;91194.38;;;3.24;94.94
63493;BME280;49638;47.526;10.028;2022-11-20T03:35:43;91180.13;;;3.20;95.04
63493;BME280;49638;47.526;10.028;2022-11-20T03:38:44;91197.94;;;3.30;94.60
63493;BME280;49638;47.526;10.028;2022-11-20T03:41:44;91191.34;;;3.27;95.08
63493;BME280;49638;47.526;10.028;2022-11-20T03:44:45;91203.38;;;3.28;94.77
63493;BME280;49638;47.526;10.028;2022-11-20T03:47:45;91202.81;;;3.26;94.83
63493;BME280;49638;47.526;10.028;2022-11-20T03:50:46;91203.41;;;3.22;94.93
63493;BME280;49638;47.526;10.028;2022-11-20T03:53:49;91208.03;;;3.26;95.21
63493;BME280;49638;47.526;10.028;2022-11-20T03:56:50;91204.22;;;3.22;94.89
63493;BME280;49638;47.526;10.028;2022-11-20T03:59:50;91215.44;;;3.29;94.81
63493;BME280;49638;47.526;10.028;2022-11-20T04:02:50;91219.47;;;3.25;95.11
63493;BME280;49638;47.526;10.028;2022-11-20T04:05:50;91217.88;;;3.24;95.51
63493;BME280;49638;47.526;10.028;2022-11-20T04:08:56;91212.03;;;3.22;94.94
63493;BME280;49638;47.526;10.028;2022-11-20T04:11:57;91211.84;;;3.24;95.31
63493;BME280;49638;47.526;10.028;2022-11-20T04:14:57;91212.66;;;3.24;95.60
63493;BME280;49638;47.526;10.028;2022-11-20T04:17:57;91207.69;;;3.16;95.59
63493;BME280;49638;47.526;10.028;2022-11-20T04:20:58;91214.84;;;3.27;95.26
63493;BME280;49638;47.526;10.028;2022-11-20T04:23:58;91214.41;;;3.30;95.35
63493;BME280;49638;47.526;10.028;2022-11-20T04:26:58;91212.00;;;3.29;95.08
63493;BME280;49638;47.526;10.028;2022-11-20T04:29:59;91208.44;;;3.23;95.20
63493;BME280;49638;47.526;10.028;2022-11-20T04:32:59;91209.63;;;3.27;95.22
63493;BME280;49638;47.526;10.028;2022-11-20T04:36:01;91216.22;;;3.30;95.07
63493;BME280;49638;47.526;10.028;2022-11-20T04:39:04;91229.72;;;3.27;95.03
63493;BME280;49638;47.526;10.028;2022-11-20T04:42:05;91217.13;;;3.17;95.11
63493;BME280;49638;47.526;10.028;2022-11-20T04:45:23;91213.91;;;3.15;94.77
63493;BME280;49638;47.526;10.028;2022-11-20T04:48:25;91220.09;;;3.21;94.87
63493;BME280;49638;47.526;10.028;2022-11-20T04:51:26;91226.34;;;3.20;94.99
63493;BME280;49638;47.526;10.028;2022-11-20T04:54:26;91227.56;;;3.17;94.64
63493;BME280;49638;47.526;10.028;2022-11-20T04:57:26;91232.59;;;3.12;94.64
63493;BME280;49638;47.526;10.028;2022-11-20T05:00:27;91234.41;;;3.12;94.49
63493;BME280;49638;47.526;10.028;2022-11-20T05:03:27;91222.16;;;3.12;93.78
63493;BME280;49638;47.526;10.028;2022-11-20T05:06:27;91197.00;;;2.93;94.29
63493;BME280;49638;47.526;10.028;2022-11-20T05:09:27;91231.41;;;3.08;94.41
63493;BME280;49638;47.526;10.028;2022-11-20T05:12:28;91219.97;;;3.09;93.50
63493;BME280;49638;47.526;10.028;2022-11-20T05:15:28;91214.59;;;3.04;93.59
63493;BME280;49638;47.526;10.028;2022-11-20T05:18:29;91232.19;;;3.15;93.55
63493;BME280;49638;47.526;10.028;2022-11-20T05:21:30;91236.44;;;3.10;93.38
63493;BME280;49638;47.526;10.028;2022-11-20T05:24:32;91235.69;;;3.02;93.75
63493;BME280;49638;47.526;10.028;2022-11-20T05:27:32;91246.06;;;3.09;93.45
63493;BME280;49638;47.526;10.028;2022-11-20T05:30:32;91245.91;;;3.04;93.49
63493;BME280;49638;47.526;10.028;2022-11-20T05:33:34;91247.09;;;3.08;93.82
63493;BME280;49638;47.526;10.028;2022-11-20T05:36:34;91251.13;;;3.04;93.71
63493;BME280;49638;47.526;10.028;2022-11-20T05:39:34;91237.94;;;2.92;93.72
63493;BME280;49638;47.526;10.028;2022-11-20T05:42:35;91251.78;;;2.99;93.70
63493;BME280;49638;47.526;10.028;2022-11-20T05:45:35;91247.56;;;2.92;92.88
63493;BME280;49638;47.526;10.028;2022-11-20T05:48:37;91252.59;;;2.93;93.56
63493;BME280;49638;47.526;10.028;2022-11-20T05:51:38;91235.56;;;2.84;93.43
63493;BME280;49638;47.526;10.028;2022-11-20T05:54:38;91245.97;;;2.91;93.91
63493;BME280;49638;47.526;10.028;2022-11-20T05:57:38;91240.00;;;2.83;92.84
63493;BME280;49638;47.526;10.028;2022-11-20T06:00:39;91259.03;;;2.91;93.73
63493;BME280;49638;47.526;10.028;2022-11-20T06:03:39;91254.41;;;2.93;93.00
63493;BME280;49638;47.526;10.028;2022-11-20T06:06:40;91255.63;;;2.90;93.11
63493;BME280;49638;47.526;10.028;2022-11-20T06:09:40;91254.84;;;2.83;92.68
63493;BME280;49638;47.526;10.028;2022-11-20T06:12:41;91256.03;;;2.87;92.97
63493;BME280;49638;47.526;10.028;2022-11-20T06:15:41;91244.81;;;2.87;93.09
63493;BME280;49638;47.526;10.028;2022-11-20T06:18:41;91247.56;;;2.92;91.99
63493;BME280;49638;47.526;10.028;2022-11-20T06:21:42;91249.00;;;2.88;92.85
63493;BME280;49638;47.526;10.028;2022-11-20T06:24:42;91255.63;;;2.90;91.97
63493;BME280;49638;47.526;10.028;2022-11-20T06:27:42;91240.22;;;2.82;91.98
63493;BME280;49638;47.526;10.028;2022-11-20T06:30:45;91250.22;;;2.85;92.02
63493;BME280;49638;47.526;10.028;2022-11-20T06:33:46;91258.84;;;2.92;92.66
63493;BME280;49638;47.526;10.028;2022-11-20T06:36:47;91259.66;;;2.86;91.43
63493;BME280;49638;47.526;10.028;2022-11-20T06:39:47;91253.66;;;2.86;91.44
63493;BME280;49638;47.526;10.028;2022-11-20T06:42:47;91250.25;;;2.78;92.00
63493;BME280;49638;47.526;10.028;2022-11-20T06:45:54;91254.63;;;2.84;92.06
63493;BME280;49638;47.526;10.028;2022-11-20T06:48:55;91259.25;;;2.89;92.55
63493;BME280;49638;47.526;10.028;2022-11-20T06:51:55;91259.06;;;2.84;92.28
63493;BME280;49638;47.526;10.028;2022-11-20T06:54:56;91265.06;;;2.84;92.13
63493;BME280;49638;47.526;10.028;2022-11-20T06:57:56;91279.72;;;2.92;92.50
63493;BME280;49638;47.526;10.028;2022-11-20T07:01:01;91274.09;;;2.89;91.69
63493;BME280;49638;47.526;10.028;2022-11-20T07:04:02;91272.88;;;2.91;92.32
63493;BME280;49638;47.526;10.028;2022-11-20T07:07:03;91281.28;;;3.00;91.65
63493;BME280;49638;47.526;10.028;2022-11-20T07:10:03;91281.88;;;2.95;91.80
63493;BME280;49638;47.526;10.028;2022-11-20T07:13:04;91283.69;;;2.95;90.64
63493;BME280;49638;47.526;10.028;2022-11-20T07:16:06;91294.72;;;3.03;91.60
63493;BME280;49638;47.526;10.028;2022-11-20T07:19:07;91280.91;;;2.96;90.03
63493;BME280;49638;47.526;10.028;2022-11-20T07:22:08;91297.50;;;3.02;90.51
63493;BME280;49638;47.526;10.028;2022-11-20T07:25:09;91300.13;;;3.02;90.61
63493;BME280;49638;47.526;10.028;2022-11-20T07:28:09;91285.72;;;2.93;90.14
63493;BME280;49638;47.526;10.028;2022-11-20T07:31:10;91302.31;;;3.05;90.89
63493;BME280;49638;47.526;10.028;2022-11-20T07:34:12;91306.56;;;3.06;91.40
63493;BME280;49638;47.526;10.028;2022-11-20T07:37:12;91293.31;;;3.01;90.55
63493;BME280;49638;47.526;10.028;2022-11-20T07:40:13;91313.16;;;3.08;90.56
63493;BME280;49638;47.526;10.028;2022-11-20T07:43:13;91306.72;;;3.11;91.22
63493;BME280;49638;47.526;10.028;2022-11-20T07:46:13;91299.31;;;3.08;90.63
63493;BME280;49638;47.526;10.028;2022-11-20T07:49:14;91319.38;;;3.14;91.07
63493;BME280;49638;47.526;10.028;2022-11-20T07:52:14;91311.13;;;3.17;90.33
63493;BME280;49638;47.526;10.028;2022-11-20T07:55:15;91307.28;;;3.20;90.46
63493;BME280;49638;47.526;10.028;2022-11-20T07:58:15;91310.28;;;3.23;90.46
63493;BME280;49638;47.526;10.028;2022-11-20T08:01:15;91308.09;;;3.20;90.75
63493;BME280;49638;47.526;10.028;2022-11-20T08:04:15;91309.28;;;3.24;91.01
63493;BME280;49638;47.526;10.028;2022-11-20T08:07:16;91301.81;;;3.28;90.60
63493;BME280;49638;47.526;10.028;2022-11-20T08:10:16;91301.19;;;3.32;91.05
63493;BME280;49638;47.526;10.028;2022-11-20T08:13:17;91310.59;;;3.40;90.76
63493;BME280;49638;47.526;10.028;2022-11-20T08:16:35;91308.56;;;3.42;90.21
63493;BME280;49638;47.526;10.028;2022-11-20T08:19:36;91299.94;;;3.42;90.33
63493;BME280;49638;47.526;10.028;2022-11-20T08:22:36;91296.28;;;3.43;90.48
63493;BME280;49638;47.526;10.028;2022-11-20T08:25:37;91304.91;;;3.50;90.26
63493;BME280;49638;47.526;10.028;2022-11-20T08:28:38;91301.66;;;3.54;90.23
63493;BME280;49638;47.526;10.028;2022-11-20T08:31:38;91306.66;;;3.56;89.98
63493;BME280;49638;47.526;10.028;2022-11-20T08:34:38;91298.66;;;3.51;89.33
63493;BME280;49638;47.526;10.028;2022-11-20T08:37:39;91315.84;;;3.65;89.96
63493;BME280;49638;47.526;10.028;2022-11-20T08:40:41;91310.63;;;3.65;89.96
63493;BME280;49638;47.526;10.028;2022-11-20T08:44:03;91314.59;;;3.74;89.53
63493;BME280;49638;47.526;10.028;2022-11-20T08:47:04;91309.94;;;3.76;89.00
63493;BME280;49638;47.526;10.028;2022-11-20T08:50:05;91296.50;;;3.73;89.07
63493;BME280;49638;47.526;10.028;2022-11-20T08:53:06;91317.75;;;3.83;89.26
63493;BME280;49638;47.526;10.028;2022-11-20T08:56:06;91308.44;;;3.87;88.88
63493;BME280;49638;47.526;10.028;2022-11-20T08:59:07;91311.66;;;3.89;88.49
63493;BME280;49638;47.526;10.028;2022-11-20T09:02:07;91312.41;;;3.96;88.40
63493;BME280;49638;47.526;10.028;2022-11-20T09:05:07;91314.19;;;4.02;88.53
63493;BME280;49638;47.526;10.028;2022-11-20T09:08:08;91311.94;;;4.06;88.22
63493;BME280;49638;47.526;10.028;2022-11-20T09:11:09;91312.97;;;4.05;88.36
63493;BME280;49638;47.526;10.028;2022-11-20T09:14:09;91311.50;;;4.09;88.00
63493;BME280;49638;47.526;10.028;2022-11-20T09:17:10;91307.50;;;4.07;87.68
63493;BME280;49638;47.526;10.028;2022-11-20T09:20:14;91308.31;;;4.07;87.66
63493;BME280;49638;47.526;10.028;2022-11-20T09:23:14;91305.25;;;4.10;87.51
63493;BME280;49638;47.526;10.028;2022-11-20T09:26:15;91306.66;;;4.13;87.57
63493;BME280;49638;47.526;10.028;2022-11-20T09:29:15;91306.22;;;4.16;87.57
63493;BME280;49638;47.526;10.028;2022-11-20T09:32:15;91303.75;;;4.21;87.54
63493;BME280;49638;47.526;10.028;2022-11-20T09:35:16;91305.00;;;4.18;86.65
63493;BME280;49638;47.526;10.028;2022-11-20T09:38:18;91296.09;;;4.26;87.07
63493;BME280;49638;47.526;10.028;2022-11-20T09:45:05;91303.81;;;4.39;85.32
63493;BME280;49638;47.526;10.028;2022-11-20T09:52:28;91297.91;;;4.44;82.74
63493;BME280;49638;47.526;10.028;2022-11-20T09:55:30;91292.25;;;4.47;86.02
63493;BME280;49638;47.526;10.028;2022-11-20T09:58:42;91296.03;;;4.51;85.21
63493;BME280;49638;47.526;10.028;2022-11-20T10:01:45;91301.06;;;4.53;85.91
63493;BME280;49638;47.526;10.028;2022-11-20T10:11:23;91297.00;;;4.75;84.06
63493;BME280;49638;47.526;10.028;2022-11-20T10:15:07;91298.19;;;4.79;81.51
63493;BME280;49638;47.526;10.028;2022-11-20T10:18:29;91292.28;;;4.84;83.93
63493;BME280;49638;47.526;10.028;2022-11-20T10:25:16;91293.50;;;5.00;83.19
63493;BME280;49638;47.526;10.028;2022-11-20T10:31:37;91280.53;;;5.05;83.91
63493;BME280;49638;47.526;10.028;2022-11-20T10:34:59;91280.97;;;5.20;80.75
63493;BME280;49638;47.526;10.028;2022-11-20T10:38:05;91290.78;;;5.25;83.73
63493;BME280;49638;47.526;10.028;2022-11-20T10:41:17;91276.09;;;5.24;83.52
63493;BME280;49638;47.526;10.028;2022-11-20T10:44:28;91293.41;;;5.25;83.38
63493;BME280;49638;47.526;10.028;2022-11-20T10:47:47;91281.63;;;5.15;83.52
63493;BME280;49638;47.526;10.028;2022-11-20T11:00:34;91296.69;;;5.20;83.84
63493;BME280;49638;47.526;10.028;2022-11-20T11:03:34;91285.19;;;5.21;83.75
63493;BME280;49638;47.526;10.028;2022-11-20T11:06:42;91270.69;;;5.18;81.10
63493;BME280;49638;47.526;10.028;2022-11-20T11:09:52;91287.72;;;5.28;82.78
63493;BME280;49638;47.526;10.028;2022-11-20T11:12:53;91288.75;;;5.27;83.29
63493;BME280;49638;47.526;10.028;2022-11-20T11:15:54;91285.88;;;5.28;82.98
63493;BME280;49638;47.526;10.028;2022-11-20T11:19:12;91270.41;;;5.27;79.83
63493;BME280;49638;47.526;10.028;2022-11-20T11:22:16;91274.25;;;5.24;81.54
63493;BME280;49638;47.526;10.028;2022-11-20T11:25:32;91279.06;;;5.27;82.00
63493;BME280;49638;47.526;10.028;2022-11-20T11:28:35;91255.78;;;5.19;82.55
63493;BME280;49638;47.526;10.028;2022-11-20T11:31:35;91269.91;;;5.18;82.77
63493;BME280;49638;47.526;10.028;2022-11-20T11:34:36;91285.53;;;5.25;82.73
63493;BME280;49638;47.526;10.028;2022-11-20T11:37:37;91274.03;;;5.26;83.32
63493;BME280;49638;47.526;10.028;2022-11-20T11:40:40;91274.81;;;5.26;83.21
63493;BME280;49638;47.526;10.028;2022-11-20T11:43:51;91259.66;;;5.16;80.74
63493;BME280;49638;47.526;10.028;2022-11-20T11:47:37;91275.84;;;5.25;80.45
63493;BME280;49638;47.526;10.028;2022-11-20T11:50:49;91262.84;;;5.18;82.23
63493;BME280;49638;47.526;10.028;2022-11-20T11:53:50;91252.16;;;5.20;82.87
63493;BME280;49638;47.526;10.028;2022-11-20T11:56:51;91249.44;;;5.27;82.96
63493;BME280;49638;47.526;10.028;2022-11-20T12:00:02;91244.47;;;5.37;81.00
63493;BME280;49638;47.526;10.028;2022-11-20T12:03:29;91252.34;;;5.37;81.42
63493;BME280;49638;47.526;10.028;2022-11-20T12:06:34;91242.28;;;5.34;82.57
63493;BME280;49638;47.526;10.028;2022-11-20T12:09:37;91243.19;;;5.39;77.14
63493;BME280;49638;47.526;10.028;2022-11-20T12:12:42;91244.38;;;5.43;78.37
63493;BME280;49638;47.526;10.028;2022-11-20T12:15:45;91246.41;;;5.41;81.38
63493;BME280;49638;47.526;10.028;2022-11-20T12:18:51;91222.31;;;5.33;80.19
63493;BME280;49638;47.526;10.028;2022-11-20T12:21:58;91237.50;;;5.42;82.41
63493;BME280;49638;47.526;10.028;2022-11-20T12:25:36;91233.91;;;5.43;79.91
63493;BME280;49638;47.526;10.028;2022-11-20T12:28:58;91225.66;;;5.40;79.82
63493;BME280;49638;47.526;10.028;2022-11-20T12:35:43;91224.31;;;5.49;79.79
63493;BME280;49638;47.526;10.028;2022-11-20T12:39:05;91215.31;;;5.45;80.08
63493;BME280;49638;47.526;10.028;2022-11-20T12:45:54;91199.44;;;5.40;80.42
63493;BME280;49638;47.526;10.028;2022-11-20T12:49:44;91210.06;;;5.45;82.38
63493;BME280;49638;47.526;10.028;2022-11-20T12:52:38;91217.78;;;5.40;81.23
63493;BME280;49638;47.526;10.028;2022-11-20T12:59:06;91217.53;;;5.30;79.28
63493;BME280;49638;47.526;10.028;2022-11-20T13:02:29;91217.19;;;5.26;81.77
63493;BME280;49638;47.526;10.028;2022-11-20T13:08:56;91199.94;;;5.07;82.22
63493;BME280;49638;47.526;10.028;2022-11-20T13:12:06;91196.97;;;5.03;81.81
63493;BME280;49638;47.526;10.028;2022-11-20T13:15:40;91205.47;;;4.98;79.40
63493;BME280;49638;47.526;10.028;2022-11-20T13:18:43;91200.03;;;5.00;83.32
63493;BME280;49638;47.526;10.028;2022-11-20T13:21:47;91203.22;;;5.02;83.34
63493;BME280;49638;47.526;10.028;2022-11-20T13:24:52;91180.56;;;4.96;83.29
63493;BME280;49638;47.526;10.028;2022-11-20T13:27:53;91172.69;;;4.96;83.67
63493;BME280;49638;47.526;10.028;2022-11-20T13:30:55;91175.56;;;5.06;83.12
63493;BME280;49638;47.526;10.028;2022-11-20T13:33:57;91158.78;;;4.95;83.01
63493;BME280;49638;47.526;10.028;2022-11-20T13:36:59;91171.25;;;5.12;83.45
63493;BME280;49638;47.526;10.028;2022-11-20T13:43:18;91166.25;;;5.10;83.31
63493;BME280;49638;47.526;10.028;2022-11-20T13:46:19;91159.63;;;5.08;83.55
63493;BME280;49638;47.526;10.028;2022-11-20T13:49:38;91153.44;;;5.02;80.71
63493;BME280;49638;47.526;10.028;2022-11-20T13:52:48;91162.94;;;5.03;82.51
63493;BME280;49638;47.526;10.028;2022-11-20T13:56:01;91153.00;;;5.05;82.50
63493;BME280;49638;47.526;10.028;2022-11-20T14:02:30;91154.16;;;5.09;83.14
63493;BME280;49638;47.526;10.028;2022-11-20T14:05:34;91132.50;;;5.02;82.63
63493;BME280;49638;47.526;10.028;2022-11-20T14:08:40;91122.44;;;4.87;82.51
63493;BME280;49638;47.526;10.028;2022-11-20T14:11:48;91147.66;;;5.00;82.17
63493;BME280;49638;47.526;10.028;2022-11-20T14:14:51;91149.25;;;5.01;83.33
63493;BME280;49638;47.526;10.028;2022-11-20T14:17:51;91143.97;;;4.89;82.96
63493;BME280;49638;47.526;10.028;2022-11-20T14:20:52;91133.25;;;4.79;83.15
63493;BME280;49638;47.526;10.028;2022-11-20T14:23:54;91126.38;;;4.78;83.34
63493;BME280;49638;47.526;10.028;2022-11-20T14:26:54;91140.53;;;4.89;83.13
63493;BME280;49638;47.526;10.028;2022-11-20T14:29:54;91120.44;;;4.71;82.95
63493;BME280;49638;47.526;10.028;2022-11-20T14:33:01;91139.84;;;4.82;83.01
63493;BME280;49638;47.526;10.028;2022-11-20T14:36:02;91130.84;;;4.78;83.22
63493;BME280;49638;47.526;10.028;2022-11-20T14:39:02;91125.34;;;4.67;83.96
63493;BME280;49638;47.526;10.028;2022-11-20T14:42:14;91137.38;;;4.68;82.46
63493;BME280;49638;47.526;10.028;2022-11-20T14:45:16;91125.84;;;4.58;83.83
63493;BME280;49638;47.526;10.028;2022-11-20T14:48:16;91134.84;;;4.62;84.02
63493;BME280;49638;47.526;10.028;2022-11-20T14:51:35;91133.16;;;4.56;82.25
63493;BME280;49638;47.526;10.028;2022-11-20T14:54:49;91129.94;;;4.54;83.17
63493;BME280;49638;47.526;10.028;2022-11-20T14:57:55;91134.91;;;4.43;84.11
63493;BME280;49638;47.526;10.028;2022-11-20T15:00:58;91134.38;;;4.35;84.44
63493;BME280;49638;47.526;10.028;2022-11-20T15:04:08;91134.25;;;4.30;83.91
63493;BME280;49638;47.526;10.028;2022-11-20T15:07:09;91110.75;;;4.11;84.35
63493;BME280;49638;47.526;10.028;2022-11-20T15:10:19;91130.66;;;4.12;84.61
63493;BME280;49638;47.526;10.028;2022-11-20T15:16:30;91110.69;;;3.81;85.12
63493;BME280;49638;47.526;10.028;2022-11-20T15:19:31;91111.13;;;3.78;85.34
63493;BME280;49638;47.526;10.028;2022-11-20T15:22:31;91113.44;;;3.68;85.75
63493;BME280;49638;47.526;10.028;2022-11-20T15:25:32;91108.88;;;3.56;86.04
63493;BME280;49638;47.526;10.028;2022-11-20T15:28:37;91102.56;;;3.46;85.62
63493;BME280;49638;47.526;10.028;2022-11-20T15:31:39;91104.66;;;3.37;85.90
63493;BME280;49638;47.526;10.028;2022-11-20T15:34:44;91109.53;;;3.34;86.21
63493;BME280;49638;47.526;10.028;2022-11-20T15:37:45;91093.22;;;3.13;86.12
63493;BME280;49638;47.526;10.028;2022-11-20T15:40:45;91114.97;;;3.07;86.67
63493;BME280;49638;47.526;10.028;2022-11-20T15:43:45;91104.03;;;2.92;86.92
63493;BME280;49638;47.526;10.028;2022-11-20T15:46:46;91095.09;;;2.74;87.14
63493;BME280;49638;47.526;10.028;2022-11-20T15:49:47;91103.31;;;2.78;87.14
63493;BME280;49638;47.526;10.028;2022-11-20T15:52:47;91103.34;;;2.71;87.37
63493;BME280;49638;47.526;10.028;2022-11-20T15:55:47;91098.78;;;2.67;86.83
63493;BME280;49638;47.526;10.028;2022-11-20T15:58:48;91094.03;;;2.57;86.75
63493;BME280;49638;47.526;10.028;2022-11-20T16:01:49;91095.03;;;2.56;86.89
63493;BME280;49638;47.526;10.028;2022-11-20T16:04:49;91080.06;;;2.45;87.20
63493;BME280;49638;47.526;10.028;2022-11-20T16:07:50;91082.28;;;2.41;86.98
63493;BME280;49638;47.526;10.028;2022-11-20T16:10:51;91080.50;;;2.42;86.66
63493;BME280;49638;47.526;10.028;2022-11-20T16:13:51;91081.25;;;2.49;86.48
63493;BME280;49638;47.526;10.028;2022-11-20T16:17:27;91092.44;;;2.56;86.73
63493;BME280;49638;47.526;10.028;2022-11-20T16:20:43;91094.66;;;2.52;86.52
63493;BME280;49638;47.526;10.028;2022-11-20T16:23:43;91091.03;;;2.53;86.65
63493;BME280;49638;47.526;10.028;2022-11-20T16:26:43;91063.81;;;2.43;86.53
63493;BME280;49638;47.526;10.028;2022-11-20T16:29:44;91064.66;;;2.36;86.90
63493;BME280;49638;47.526;10.028;2022-11-20T16:32:44;91074.31;;;2.29;87.45
63493;BME280;49638;47.526;10.028;2022-11-20T16:35:44;91070.53;;;2.25;86.98
63493;BME280;49638;47.526;10.028;2022-11-20T16:38:45;91052.88;;;2.27;87.19
63493;BME280;49638;47.526;10.028;2022-11-20T16:41:45;91050.31;;;2.21;87.36
63493;BME280;49638;47.526;10.028;2022-11-20T16:44:46;91069.38;;;2.21;87.85
63493;BME280;49638;47.526;10.028;2022-11-20T16:47:46;91051.34;;;2.13;87.80
63493;BME280;49638;47.526;10.028;2022-11-20T16:50:51;91053.34;;;2.18;88.16
63493;BME280;49638;47.526;10.028;2022-11-20T16:53:53;91043.78;;;2.05;87.73
63493;BME280;49638;47.526;10.028;2022-11-20T16:56:54;91054.34;;;2.17;87.61
63493;BME280;49638;47.526;10.028;2022-11-20T16:59:55;91051.69;;;2.23;87.37
63493;BME280;49638;47.526;10.028;2022-11-20T17:02:56;91050.09;;;2.22;87.56
63493;BME280;49638;47.526;10.028;2022-11-20T17:05:56;91051.91;;;2.22;86.93
63493;BME280;49638;47.526;10.028;2022-11-20T17:08:56;91034.88;;;2.19;87.25
63493;BME280;49638;47.526;10.028;2022-11-20T17:11:57;91039.72;;;2.16;87.18
63493;BME280;49638;47.526;10.028;2022-11-20T17:14:57;91050.94;;;2.16;87.67